sensor_id;sensor_type;location;lat;lon;timestamp;temperature;humidity
21493;DHT22;10908;50.690;4.400;2022-08-20T00:00:11;19.80;77.70
21493;DHT22;10908;50.690;4.400;2022-08-20T00:02:45;19.80;77.60
21493;DHT22;10908;50.690;4.400;2022-08-20T00:05:12;19.70;77.90
21493;DHT22;10908;50.690;4.400;2022-08-20T00:07:37;19.60;78.30
21493;DHT22;10908;50.690;4.400;2022-08-20T00:10:05;19.60;78.20
21493;DHT22;10908;50.690;4.400;2022-08-20T00:12:32;19.50;78.50
21493;DHT22;10908;50.690;4.400;2022-08-20T00:14:58;19.50;78.60
21493;DHT22;10908;50.690;4.400;2022-08-20T00:17:23;19.50;78.10
21493;DHT22;10908;50.690;4.400;2022-08-20T00:19:49;19.50;78.00
21493;DHT22;10908;50.690;4.400;2022-08-20T00:22:15;19.50;78.30
21493;DHT22;10908;50.690;4.400;2022-08-20T00:24:41;19.40;78.10
21493;DHT22;10908;50.690;4.400;2022-08-20T00:27:07;19.40;78.30
21493;DHT22;10908;50.690;4.400;2022-08-20T00:29:33;19.30;78.30
21493;DHT22;10908;50.690;4.400;2022-08-20T00:31:58;19.30;78.10
21493;DHT22;10908;50.690;4.400;2022-08-20T00:34:24;19.30;77.90
21493;DHT22;10908;50.690;4.400;2022-08-20T00:36:50;19.30;77.80
21493;DHT22;10908;50.690;4.400;2022-08-20T00:39:16;19.30;77.80
21493;DHT22;10908;50.690;4.400;2022-08-20T00:41:41;19.30;77.90
21493;DHT22;10908;50.690;4.400;2022-08-20T00:44:16;19.30;77.80
21493;DHT22;10908;50.690;4.400;2022-08-20T00:46:43;19.30;77.90
21493;DHT22;10908;50.690;4.400;2022-08-20T00:49:14;19.30;77.90
21493;DHT22;10908;50.690;4.400;2022-08-20T00:51:46;19.20;78.00
21493;DHT22;10908;50.690;4.400;2022-08-20T00:54:36;19.10;78.30
21493;DHT22;10908;50.690;4.400;2022-08-20T00:57:30;19.00;78.40
21493;DHT22;10908;50.690;4.400;2022-08-20T01:00:00;18.90;79.10
21493;DHT22;10908;50.690;4.400;2022-08-20T01:02:28;18.80;79.30
21493;DHT22;10908;50.690;4.400;2022-08-20T01:04:56;18.90;79.30
21493;DHT22;10908;50.690;4.400;2022-08-20T01:07:25;18.80;79.20
21493;DHT22;10908;50.690;4.400;2022-08-20T01:10:13;18.80;79.60
21493;DHT22;10908;50.690;4.400;2022-08-20T01:12:42;18.80;79.50
21493;DHT22;10908;50.690;4.400;2022-08-20T01:15:12;18.90;79.20
21493;DHT22;10908;50.690;4.400;2022-08-20T01:17:43;18.80;79.30
21493;DHT22;10908;50.690;4.400;2022-08-20T01:20:16;18.80;79.10
21493;DHT22;10908;50.690;4.400;2022-08-20T01:22:57;18.80;79.10
21493;DHT22;10908;50.690;4.400;2022-08-20T01:28:53;18.60;79.00
21493;DHT22;10908;50.690;4.400;2022-08-20T01:31:32;18.50;79.30
21493;DHT22;10908;50.690;4.400;2022-08-20T01:34:00;18.50;79.50
21493;DHT22;10908;50.690;4.400;2022-08-20T01:37:01;18.40;79.50
21493;DHT22;10908;50.690;4.400;2022-08-20T01:39:24;18.40;79.40
21493;DHT22;10908;50.690;4.400;2022-08-20T01:44:18;18.50;79.40
21493;DHT22;10908;50.690;4.400;2022-08-20T01:46:46;18.40;79.50
21493;DHT22;10908;50.690;4.400;2022-08-20T01:49:17;18.50;79.10
21493;DHT22;10908;50.690;4.400;2022-08-20T01:51:44;18.50;79.20
21493;DHT22;10908;50.690;4.400;2022-08-20T01:54:09;18.60;78.90
21493;DHT22;10908;50.690;4.400;2022-08-20T01:59:17;18.40;79.20
21493;DHT22;10908;50.690;4.400;2022-08-20T02:01:43;18.30;79.30
21493;DHT22;10908;50.690;4.400;2022-08-20T02:04:09;18.20;79.60
21493;DHT22;10908;50.690;4.400;2022-08-20T02:06:39;18.30;79.50
21493;DHT22;10908;50.690;4.400;2022-08-20T02:09:06;18.20;79.80
21493;DHT22;10908;50.690;4.400;2022-08-20T02:11:33;18.10;79.90
21493;DHT22;10908;50.690;4.400;2022-08-20T02:13:59;18.10;79.60
21493;DHT22;10908;50.690;4.400;2022-08-20T02:16:32;18.00;79.90
21493;DHT22;10908;50.690;4.400;2022-08-20T02:19:09;17.90;80.30
21493;DHT22;10908;50.690;4.400;2022-08-20T02:21:41;17.90;80.30
21493;DHT22;10908;50.690;4.400;2022-08-20T02:24:08;17.80;80.70
21493;DHT22;10908;50.690;4.400;2022-08-20T02:26:34;17.80;80.80
21493;DHT22;10908;50.690;4.400;2022-08-20T02:29:04;17.70;81.00
21493;DHT22;10908;50.690;4.400;2022-08-20T02:31:30;17.70;81.00
21493;DHT22;10908;50.690;4.400;2022-08-20T02:33:56;17.60;81.30
21493;DHT22;10908;50.690;4.400;2022-08-20T02:36:21;17.80;81.00
21493;DHT22;10908;50.690;4.400;2022-08-20T02:38:47;17.80;80.70
21493;DHT22;10908;50.690;4.400;2022-08-20T02:41:12;17.80;80.30
21493;DHT22;10908;50.690;4.400;2022-08-20T02:43:39;17.70;80.40
21493;DHT22;10908;50.690;4.400;2022-08-20T02:46:05;17.70;80.60
21493;DHT22;10908;50.690;4.400;2022-08-20T02:48:32;17.70;80.60
21493;DHT22;10908;50.690;4.400;2022-08-20T02:51:01;17.60;81.10
21493;DHT22;10908;50.690;4.400;2022-08-20T02:53:29;17.50;81.20
21493;DHT22;10908;50.690;4.400;2022-08-20T02:55:56;17.50;81.40
21493;DHT22;10908;50.690;4.400;2022-08-20T02:58:22;17.60;81.00
21493;DHT22;10908;50.690;4.400;2022-08-20T03:00:49;17.40;81.40
21493;DHT22;10908;50.690;4.400;2022-08-20T03:03:15;17.50;81.10
21493;DHT22;10908;50.690;4.400;2022-08-20T03:05:44;17.40;81.30
21493;DHT22;10908;50.690;4.400;2022-08-20T03:08:12;17.40;81.60
21493;DHT22;10908;50.690;4.400;2022-08-20T03:10:38;17.30;81.90
21493;DHT22;10908;50.690;4.400;2022-08-20T03:13:06;17.30;82.10
21493;DHT22;10908;50.690;4.400;2022-08-20T15:17:26;24.10;42.70
21493;DHT22;10908;50.690;4.400;2022-08-20T15:19:52;24.20;41.60
21493;DHT22;10908;50.690;4.400;2022-08-20T15:22:19;24.20;42.00
21493;DHT22;10908;50.690;4.400;2022-08-20T15:24:45;24.10;41.60
21493;DHT22;10908;50.690;4.400;2022-08-20T15:27:22;24.00;42.00
21493;DHT22;10908;50.690;4.400;2022-08-20T15:29:48;24.00;43.00
21493;DHT22;10908;50.690;4.400;2022-08-20T15:32:14;24.10;42.60
21493;DHT22;10908;50.690;4.400;2022-08-20T15:34:40;24.10;42.20
21493;DHT22;10908;50.690;4.400;2022-08-20T15:37:18;24.20;44.00
21493;DHT22;10908;50.690;4.400;2022-08-20T15:39:44;24.50;42.50
21493;DHT22;10908;50.690;4.400;2022-08-20T15:42:11;24.60;42.40
21493;DHT22;10908;50.690;4.400;2022-08-20T15:46:17;24.60;41.80
21493;DHT22;10908;50.690;4.400;2022-08-20T15:48:45;24.70;42.40
21493;DHT22;10908;50.690;4.400;2022-08-20T15:51:21;24.80;40.90
21493;DHT22;10908;50.690;4.400;2022-08-20T15:56:46;24.70;41.10
21493;DHT22;10908;50.690;4.400;2022-08-20T16:08:03;24.40;41.70
21493;DHT22;10908;50.690;4.400;2022-08-20T16:12:59;24.20;43.10
21493;DHT22;10908;50.690;4.400;2022-08-20T16:15:33;24.10;43.30
21493;DHT22;10908;50.690;4.400;2022-08-20T16:18:10;24.00;43.30
21493;DHT22;10908;50.690;4.400;2022-08-20T16:20:38;24.00;44.30
21493;DHT22;10908;50.690;4.400;2022-08-20T16:23:05;23.90;43.60
21493;DHT22;10908;50.690;4.400;2022-08-20T16:25:42;23.80;43.50
21493;DHT22;10908;50.690;4.400;2022-08-20T16:30:46;24.10;44.30
21493;DHT22;10908;50.690;4.400;2022-08-20T16:33:44;24.20;43.70
21493;DHT22;10908;50.690;4.400;2022-08-20T16:36:37;24.00;43.20
21493;DHT22;10908;50.690;4.400;2022-08-20T16:39:07;24.00;43.70
21493;DHT22;10908;50.690;4.400;2022-08-20T16:41:41;24.00;43.60
21493;DHT22;10908;50.690;4.400;2022-08-20T16:44:33;24.20;44.10
21493;DHT22;10908;50.690;4.400;2022-08-20T16:49:38;24.30;41.70
21493;DHT22;10908;50.690;4.400;2022-08-20T16:52:06;24.10;42.40
21493;DHT22;10908;50.690;4.400;2022-08-20T16:54:31;24.10;42.50
21493;DHT22;10908;50.690;4.400;2022-08-20T16:57:03;24.10;42.50
21493;DHT22;10908;50.690;4.400;2022-08-20T16:59:30;24.00;42.60
21493;DHT22;10908;50.690;4.400;2022-08-20T17:02:10;23.90;42.50
21493;DHT22;10908;50.690;4.400;2022-08-20T17:04:51;23.80;43.00
21493;DHT22;10908;50.690;4.400;2022-08-20T17:07:47;23.80;43.40
21493;DHT22;10908;50.690;4.400;2022-08-20T17:10:21;23.70;43.00
21493;DHT22;10908;50.690;4.400;2022-08-20T17:12:56;23.80;44.30
21493;DHT22;10908;50.690;4.400;2022-08-20T17:15:28;23.80;43.30
21493;DHT22;10908;50.690;4.400;2022-08-20T17:17:55;23.90;43.90
21493;DHT22;10908;50.690;4.400;2022-08-20T17:20:23;23.90;43.70
21493;DHT22;10908;50.690;4.400;2022-08-20T17:23:10;23.80;43.70
21493;DHT22;10908;50.690;4.400;2022-08-20T17:25:39;23.80;43.60
21493;DHT22;10908;50.690;4.400;2022-08-20T17:28:15;23.80;44.40
21493;DHT22;10908;50.690;4.400;2022-08-20T17:30:41;23.60;44.30
21493;DHT22;10908;50.690;4.400;2022-08-20T17:33:23;23.40;44.90
21493;DHT22;10908;50.690;4.400;2022-08-20T17:35:53;23.40;45.60
21493;DHT22;10908;50.690;4.400;2022-08-20T17:41:23;23.30;45.70
21493;DHT22;10908;50.690;4.400;2022-08-20T17:44:06;23.40;45.30
21493;DHT22;10908;50.690;4.400;2022-08-20T17:46:41;23.40;45.40
21493;DHT22;10908;50.690;4.400;2022-08-20T17:49:10;23.50;45.40
21493;DHT22;10908;50.690;4.400;2022-08-20T17:51:43;23.50;45.40
21493;DHT22;10908;50.690;4.400;2022-08-20T17:56:52;23.50;45.50
21493;DHT22;10908;50.690;4.400;2022-08-20T17:59:27;23.50;44.80
21493;DHT22;10908;50.690;4.400;2022-08-20T18:01:54;23.50;44.90
21493;DHT22;10908;50.690;4.400;2022-08-20T18:04:22;23.50;45.00
21493;DHT22;10908;50.690;4.400;2022-08-20T18:09:27;23.30;45.90
21493;DHT22;10908;50.690;4.400;2022-08-20T18:12:27;23.30;45.80
21493;DHT22;10908;50.690;4.400;2022-08-20T18:15:37;23.40;45.90
21493;DHT22;10908;50.690;4.400;2022-08-20T18:20:50;23.40;45.80
21493;DHT22;10908;50.690;4.400;2022-08-20T18:25:56;23.20;46.70
21493;DHT22;10908;50.690;4.400;2022-08-20T18:29:11;23.10;47.10
21493;DHT22;10908;50.690;4.400;2022-08-20T18:31:33;22.90;47.60
21493;DHT22;10908;50.690;4.400;2022-08-20T18:37:21;22.90;48.00
21493;DHT22;10908;50.690;4.400;2022-08-20T18:39:44;22.80;47.90
21493;DHT22;10908;50.690;4.400;2022-08-20T18:42:28;22.70;49.00
21493;DHT22;10908;50.690;4.400;2022-08-20T18:44:55;22.50;49.70
21493;DHT22;10908;50.690;4.400;2022-08-20T18:49:59;22.20;51.60
21493;DHT22;10908;50.690;4.400;2022-08-20T18:52:29;22.00;51.80
21493;DHT22;10908;50.690;4.400;2022-08-20T18:54:58;21.80;52.20
21493;DHT22;10908;50.690;4.400;2022-08-20T18:57:27;21.70;52.60
21493;DHT22;10908;50.690;4.400;2022-08-20T19:02:39;21.30;53.90
21493;DHT22;10908;50.690;4.400;2022-08-20T19:05:25;20.90;55.10
21493;DHT22;10908;50.690;4.400;2022-08-20T19:07:53;20.90;55.60
21493;DHT22;10908;50.690;4.400;2022-08-20T19:10:40;20.80;56.50
21493;DHT22;10908;50.690;4.400;2022-08-20T19:13:31;20.70;56.80
21493;DHT22;10908;50.690;4.400;2022-08-20T19:16:04;20.50;57.00
21493;DHT22;10908;50.690;4.400;2022-08-20T19:18:42;20.40;57.60
21493;DHT22;10908;50.690;4.400;2022-08-20T19:21:11;20.40;57.40
21493;DHT22;10908;50.690;4.400;2022-08-20T19:23:40;20.40;56.90
21493;DHT22;10908;50.690;4.400;2022-08-20T19:26:14;20.50;56.80
21493;DHT22;10908;50.690;4.400;2022-08-20T19:28:43;20.30;57.70
21493;DHT22;10908;50.690;4.400;2022-08-20T19:31:29;20.50;57.00
21493;DHT22;10908;50.690;4.400;2022-08-20T19:34:18;20.40;57.40
21493;DHT22;10908;50.690;4.400;2022-08-20T19:36:44;20.30;58.20
21493;DHT22;10908;50.690;4.400;2022-08-20T19:39:19;20.30;58.10
21493;DHT22;10908;50.690;4.400;2022-08-20T19:41:48;20.20;58.70
21493;DHT22;10908;50.690;4.400;2022-08-20T19:44:43;20.10;58.70
21493;DHT22;10908;50.690;4.400;2022-08-20T19:47:40;19.80;60.10
21493;DHT22;10908;50.690;4.400;2022-08-20T19:55:25;19.60;60.30
21493;DHT22;10908;50.690;4.400;2022-08-20T19:57:58;19.60;61.00
21493;DHT22;10908;50.690;4.400;2022-08-20T20:00:26;19.50;61.00
21493;DHT22;10908;50.690;4.400;2022-08-20T20:02:53;19.30;61.80
21493;DHT22;10908;50.690;4.400;2022-08-20T20:05:19;19.30;62.10
21493;DHT22;10908;50.690;4.400;2022-08-20T20:07:48;19.30;62.20
21493;DHT22;10908;50.690;4.400;2022-08-20T20:10:34;19.20;62.70
21493;DHT22;10908;50.690;4.400;2022-08-20T20:13:12;19.10;62.60
21493;DHT22;10908;50.690;4.400;2022-08-20T20:15:38;19.20;62.40
21493;DHT22;10908;50.690;4.400;2022-08-20T20:18:06;19.10;62.30
21493;DHT22;10908;50.690;4.400;2022-08-20T20:20:34;19.00;62.80
21493;DHT22;10908;50.690;4.400;2022-08-20T20:23:30;18.90;63.00
21493;DHT22;10908;50.690;4.400;2022-08-20T20:25:59;18.90;63.00
21493;DHT22;10908;50.690;4.400;2022-08-20T20:31:08;18.70;63.60
21493;DHT22;10908;50.690;4.400;2022-08-20T20:33:40;18.70;64.00
21493;DHT22;10908;50.690;4.400;2022-08-20T20:36:09;18.60;64.40
21493;DHT22;10908;50.690;4.400;2022-08-20T20:38:53;18.60;64.60
21493;DHT22;10908;50.690;4.400;2022-08-20T20:41:24;18.60;65.10
21493;DHT22;10908;50.690;4.400;2022-08-20T20:44:18;18.60;65.10
21493;DHT22;10908;50.690;4.400;2022-08-20T20:46:46;18.60;65.50
21493;DHT22;10908;50.690;4.400;2022-08-20T20:49:24;18.50;65.20
21493;DHT22;10908;50.690;4.400;2022-08-20T20:51:58;18.40;65.50
21493;DHT22;10908;50.690;4.400;2022-08-20T20:54:41;18.30;65.90
21493;DHT22;10908;50.690;4.400;2022-08-20T20:59:47;18.50;66.30
21493;DHT22;10908;50.690;4.400;2022-08-20T21:02:18;18.80;66.20
21493;DHT22;10908;50.690;4.400;2022-08-20T21:04:43;18.60;66.10
21493;DHT22;10908;50.690;4.400;2022-08-20T21:07:11;18.60;66.20
21493;DHT22;10908;50.690;4.400;2022-08-20T21:09:39;18.40;66.80
21493;DHT22;10908;50.690;4.400;2022-08-20T21:12:07;18.20;67.70
21493;DHT22;10908;50.690;4.400;2022-08-20T21:14:33;18.00;68.30
21493;DHT22;10908;50.690;4.400;2022-08-20T21:17:01;17.80;68.70
21493;DHT22;10908;50.690;4.400;2022-08-20T21:19:28;17.80;69.00
21493;DHT22;10908;50.690;4.400;2022-08-20T21:21:54;17.80;69.30
21493;DHT22;10908;50.690;4.400;2022-08-20T21:24:20;17.70;69.40
21493;DHT22;10908;50.690;4.400;2022-08-20T21:26:47;17.60;69.30
21493;DHT22;10908;50.690;4.400;2022-08-20T21:29:16;17.50;69.50
21493;DHT22;10908;50.690;4.400;2022-08-20T21:31:44;17.50;69.90
21493;DHT22;10908;50.690;4.400;2022-08-20T21:34:11;17.40;69.70
21493;DHT22;10908;50.690;4.400;2022-08-20T21:36:37;17.40;70.10
21493;DHT22;10908;50.690;4.400;2022-08-20T21:39:03;17.30;70.10
21493;DHT22;10908;50.690;4.400;2022-08-20T21:41:30;17.30;70.40
21493;DHT22;10908;50.690;4.400;2022-08-20T21:43:57;17.30;70.60
21493;DHT22;10908;50.690;4.400;2022-08-20T21:46:23;17.30;70.80
21493;DHT22;10908;50.690;4.400;2022-08-20T21:48:50;17.30;71.00
21493;DHT22;10908;50.690;4.400;2022-08-20T21:51:15;17.30;70.80
21493;DHT22;10908;50.690;4.400;2022-08-20T21:53:41;17.40;70.60
21493;DHT22;10908;50.690;4.400;2022-08-20T21:56:09;17.40;70.50
21493;DHT22;10908;50.690;4.400;2022-08-20T21:58:35;17.30;70.50
21493;DHT22;10908;50.690;4.400;2022-08-20T22:01:03;17.30;70.90
21493;DHT22;10908;50.690;4.400;2022-08-20T22:03:32;17.30;70.90
21493;DHT22;10908;50.690;4.400;2022-08-20T22:06:06;17.30;70.70
21493;DHT22;10908;50.690;4.400;2022-08-20T22:08:32;17.30;71.00
21493;DHT22;10908;50.690;4.400;2022-08-20T22:10:58;17.20;71.20
21493;DHT22;10908;50.690;4.400;2022-08-20T22:13:27;17.10;71.30
21493;DHT22;10908;50.690;4.400;2022-08-20T22:15:57;17.10;71.40
21493;DHT22;10908;50.690;4.400;2022-08-20T22:18:23;17.00;72.00
21493;DHT22;10908;50.690;4.400;2022-08-20T22:20:49;17.00;72.10
21493;DHT22;10908;50.690;4.400;2022-08-20T22:23:14;17.10;71.80
21493;DHT22;10908;50.690;4.400;2022-08-20T22:25:40;17.10;71.90
21493;DHT22;10908;50.690;4.400;2022-08-20T22:28:06;17.00;71.50
21493;DHT22;10908;50.690;4.400;2022-08-20T22:30:33;16.80;71.70
21493;DHT22;10908;50.690;4.400;2022-08-20T22:33:02;16.60;72.60
21493;DHT22;10908;50.690;4.400;2022-08-20T22:35:29;16.70;72.60
21493;DHT22;10908;50.690;4.400;2022-08-20T22:37:55;16.70;72.60
21493;DHT22;10908;50.690;4.400;2022-08-20T22:40:20;16.60;72.80
21493;DHT22;10908;50.690;4.400;2022-08-20T22:42:46;16.60;72.70
21493;DHT22;10908;50.690;4.400;2022-08-20T22:45:12;16.70;72.80
21493;DHT22;10908;50.690;4.400;2022-08-20T22:47:37;16.90;72.50
21493;DHT22;10908;50.690;4.400;2022-08-20T22:50:04;16.80;72.10
21493;DHT22;10908;50.690;4.400;2022-08-20T22:52:31;16.80;72.60
21493;DHT22;10908;50.690;4.400;2022-08-20T22:54:57;16.80;72.10
21493;DHT22;10908;50.690;4.400;2022-08-20T22:57:22;16.80;72.40
21493;DHT22;10908;50.690;4.400;2022-08-20T22:59:48;16.80;72.30
21493;DHT22;10908;50.690;4.400;2022-08-20T23:02:16;16.80;72.00
21493;DHT22;10908;50.690;4.400;2022-08-20T23:04:42;16.80;72.20
21493;DHT22;10908;50.690;4.400;2022-08-20T23:07:10;16.70;72.30
21493;DHT22;10908;50.690;4.400;2022-08-20T23:09:36;16.60;72.50
21493;DHT22;10908;50.690;4.400;2022-08-20T23:12:02;16.40;72.90
21493;DHT22;10908;50.690;4.400;2022-08-20T23:14:28;16.40;73.00
21493;DHT22;10908;50.690;4.400;2022-08-20T23:17:04;16.30;73.20
21493;DHT22;10908;50.690;4.400;2022-08-20T23:19:32;16.30;73.30
21493;DHT22;10908;50.690;4.400;2022-08-20T23:21:57;16.20;73.50
21493;DHT22;10908;50.690;4.400;2022-08-20T23:24:23;16.30;73.70
21493;DHT22;10908;50.690;4.400;2022-08-20T23:26:49;16.30;73.50
21493;DHT22;10908;50.690;4.400;2022-08-20T23:29:15;16.40;73.50
21493;DHT22;10908;50.690;4.400;2022-08-20T23:31:41;16.30;73.60
21493;DHT22;10908;50.690;4.400;2022-08-20T23:34:07;16.30;73.50
21493;DHT22;10908;50.690;4.400;2022-08-20T23:36:33;16.40;73.20
21493;DHT22;10908;50.690;4.400;2022-08-20T23:38:59;16.30;73.20
21493;DHT22;10908;50.690;4.400;2022-08-20T23:41:25;16.30;73.20
21493;DHT22;10908;50.690;4.400;2022-08-20T23:43:51;16.30;73.30
21493;DHT22;10908;50.690;4.400;2022-08-20T23:46:17;16.30;72.90
21493;DHT22;10908;50.690;4.400;2022-08-20T23:48:44;16.30;73.20
21493;DHT22;10908;50.690;4.400;2022-08-20T23:51:10;16.30;73.50
21493;DHT22;10908;50.690;4.400;2022-08-20T23:53:36;16.20;73.60
21493;DHT22;10908;50.690;4.400;2022-08-20T23:56:03;16.20;73.70
21493;DHT22;10908;50.690;4.400;2022-08-20T23:58:29;16.10;73.80
